Time;durP1;ratioP1;P1;durP2;ratioP2;P2;SDS_P1;SDS_P2;PMS_P1;PMS_P2;Temp;Humidity;BMP_temperature;BMP_pressure;BME280_temperature;BME280_humidity;BME280_pressure;Samples;Min_cycle;Max_cycle;Signal;HPM_P1;HPM_P2
2022/01/08 00:01:24;;;;;;;27.37;14.20;;;;;;;3.56;94.38;97374.91;4969346;28;20201;-88
2022/01/08 00:03:53;;;;;;;28.67;15.53;;;;;;;3.23;94.54;97317.31;4951117;28;20672;-88
2022/01/08 00:06:21;;;;;;;27.33;15.10;;;;;;;3.51;94.35;97358.75;4935321;28;20703;-88
2022/01/08 00:08:49;;;;;;;24.17;13.40;;;;;;;2.96;94.69;97275.03;4968914;28;20294;-86
2022/01/08 00:11:20;;;;;;;22.70;13.17;;;;;;;3.23;95.19;97333.53;4934633;28;20205;-87
2022/01/08 00:13:47;;;;;;;22.40;12.87;;;;;;;3.50;95.12;97349.38;4969269;28;20199;-89
2022/01/08 00:16:15;;;;;;;24.53;13.73;;;;;;;3.73;95.26;97376.38;4950458;28;20190;-87
2022/01/08 00:18:42;;;;;;;22.53;13.27;;;;;;;3.35;94.74;97300.94;4969001;28;20284;-88
2022/01/08 00:21:10;;;;;;;21.40;12.60;;;;;;;3.80;94.42;97379.69;4950423;28;20199;-89
2022/01/08 00:23:37;;;;;;;21.30;12.77;;;;;;;3.61;94.64;97347.50;4935754;28;20228;-88
2022/01/08 00:26:06;;;;;;;24.60;12.40;;;;;;;3.89;94.49;97371.88;4919480;28;20193;-86
2022/01/08 00:28:34;;;;;;;24.23;13.30;;;;;;;3.51;94.02;97299.88;4967937;28;20693;-87
2022/01/08 00:31:02;;;;;;;22.93;12.60;;;;;;;3.83;94.00;97357.44;4935805;28;20286;-89
2022/01/08 00:33:29;;;;;;;18.97;11.73;;;;;;;3.76;94.09;97345.59;4918540;28;20586;-86
2022/01/08 00:35:57;;;;;;;20.27;12.37;;;;;;;3.99;93.73;97361.50;4935887;28;20279;-85
2022/01/08 00:38:24;;;;;;;20.47;11.87;;;;;;;3.37;93.85;97263.38;4918394;28;20189;-86
2022/01/08 00:40:51;;;;;;;22.83;12.97;;;;;;;3.75;93.85;97327.69;4971771;28;20296;-87
2022/01/08 00:43:21;;;;;;;23.87;12.83;;;;;;;3.86;94.09;97346.31;4954910;28;20263;-87
2022/01/08 00:45:49;;;;;;;23.27;13.03;;;;;;;3.30;94.43;97242.16;4954176;28;20197;-86
2022/01/08 00:48:17;;;;;;;25.30;13.67;;;;;;;3.48;94.60;97272.63;4957739;28;20271;-85
2022/01/08 00:50:44;;;;;;;23.00;13.13;;;;;;;3.93;94.48;97341.09;4923665;28;20628;-87
2022/01/08 00:53:12;;;;;;;23.90;12.73;;;;;;;3.85;94.81;97332.66;4940135;28;20204;-88
2022/01/08 00:55:41;;;;;;;24.30;13.77;;;;;;;3.75;94.56;97299.53;4940866;28;20201;-88
2022/01/08 00:58:09;;;;;;;21.60;13.30;;;;;;;3.77;94.98;97310.59;4957314;28;20621;-88
2022/01/08 01:00:38;;;;;;;24.47;14.47;;;;;;;3.66;95.09;97299.66;4973429;28;20204;-88
2022/01/08 01:03:06;;;;;;;24.17;13.20;;;;;;;3.50;94.81;97275.16;4923713;28;20205;-88
2022/01/08 01:05:33;;;;;;;25.67;13.90;;;;;;;3.73;95.06;97304.66;4940037;28;20226;-87
2022/01/08 01:08:01;;;;;;;24.93;13.37;;;;;;;3.87;95.32;97312.16;4972183;28;20185;-87
2022/01/08 01:10:28;;;;;;;21.33;13.07;;;;;;;4.03;94.92;97306.78;4956007;28;20621;-86
2022/01/08 01:12:58;;;;;;;23.80;13.37;;;;;;;3.72;94.62;97262.00;4937572;28;20546;-87
2022/01/08 01:15:25;;;;;;;20.67;12.40;;;;;;;4.16;94.90;97314.25;4939198;28;20612;-87
2022/01/08 01:17:53;;;;;;;21.93;12.47;;;;;;;4.25;94.30;97307.25;4940937;28;20207;-87
2022/01/08 01:20:23;;;;;;;21.33;12.33;;;;;;;4.31;93.80;97306.31;4945959;28;20206;-87
2022/01/08 01:23:17;;;;;;;23.97;12.73;;;;;;;4.31;94.06;97296.06;4939030;28;20639;-87
2022/01/08 01:25:48;;;;;;;18.63;11.33;;;;;;;4.40;94.00;97294.19;4931800;28;20201;-88
2022/01/08 01:28:36;;;;;;;20.10;11.63;;;;;;;3.88;93.20;97226.72;4923091;28;20197;-88
2022/01/08 01:47:14;;;;;;;19.10;12.13;;;;;;;4.51;92.86;97287.16;4955302;28;20196;-88
2022/01/08 01:49:45;;;;;;;21.67;12.87;;;;;;;4.45;93.27;97276.97;4940743;28;20494;-88
2022/01/08 01:52:15;;;;;;;19.53;11.87;;;;;;;4.43;93.04;97273.59;4953824;28;20698;-89
2022/01/08 01:54:43;;;;;;;25.33;13.90;;;;;;;4.19;93.07;97243.28;4956435;28;20195;-88
2022/01/08 01:57:13;;;;;;;21.30;12.23;;;;;;;4.39;93.67;97276.28;4924883;28;20676;-87
2022/01/08 01:59:41;;;;;;;24.40;13.33;;;;;;;3.93;93.14;97195.06;4939855;28;20221;-88
2022/01/08 02:02:09;;;;;;;21.93;11.40;;;;;;;4.24;93.45;97228.69;4927833;28;20228;-88
2022/01/08 02:04:37;;;;;;;24.20;12.67;;;;;;;3.91;92.53;97170.34;4923714;28;20298;-87
2022/01/08 02:07:07;;;;;;;18.57;11.67;;;;;;;4.36;92.56;97246.41;4941748;28;20209;-89
2022/01/08 02:09:39;;;;;;;20.03;10.90;;;;;;;4.21;93.20;97254.34;4937240;28;20275;-88
2022/01/08 02:12:17;;;;;;;21.43;12.80;;;;;;;4.21;94.03;97248.38;4936903;28;20208;-89
2022/01/08 02:14:50;;;;;;;21.37;12.03;;;;;;;4.14;94.77;97251.03;4922176;28;20258;-88
2022/01/08 02:17:18;;;;;;;22.83;11.83;;;;;;;3.67;94.97;97163.09;4952135;28;20201;-89
2022/01/08 02:19:45;;;;;;;22.00;11.90;;;;;;;4.10;95.46;97233.22;4922668;28;20209;-88
2022/01/08 02:22:16;;;;;;;20.87;12.07;;;;;;;4.16;95.12;97227.97;4969560;28;20213;-89
2022/01/08 02:24:45;;;;;;;22.10;12.67;;;;;;;4.31;95.22;97225.13;4954258;28;20232;-89
2022/01/08 02:27:14;;;;;;;23.20;12.87;;;;;;;4.23;94.61;97197.94;4937063;28;20199;-89
2022/01/08 02:29:42;;;;;;;26.97;13.40;;;;;;;4.45;94.37;97225.69;4953236;28;20219;-89
2022/01/08 02:32:19;;;;;;;22.47;12.57;;;;;;;4.50;94.19;97234.16;4937829;28;20293;-85
2022/01/08 02:34:48;;;;;;;19.03;11.13;;;;;;;4.49;93.65;97209.38;4950213;28;20260;-88
2022/01/08 02:37:17;;;;;;;18.37;10.47;;;;;;;4.47;94.10;97218.81;4953183;28;20201;-89
2022/01/08 02:39:48;;;;;;;19.80;10.73;;;;;;;4.62;93.58;97228.78;4936892;28;20248;-89
2022/01/08 02:42:20;;;;;;;17.33;10.50;;;;;;;4.48;93.05;97194.88;4954104;28;20740;-88
2022/01/08 02:44:49;;;;;;;14.93;9.27;;;;;;;4.38;94.05;97190.81;4936800;28;20228;-87
2022/01/08 02:47:21;;;;;;;15.87;8.60;;;;;;;4.55;93.40;97222.13;4936239;28;20192;-89
2022/01/08 02:49:52;;;;;;;14.13;9.37;;;;;;;4.57;93.52;97220.38;4953352;28;20236;-86
2022/01/08 02:52:22;;;;;;;16.17;9.33;;;;;;;4.71;93.78;97233.75;4951775;28;20201;-89
2022/01/08 02:54:50;;;;;;;17.00;9.77;;;;;;;4.57;93.41;97212.66;4970868;28;20274;-87
2022/01/08 02:57:19;;;;;;;19.77;10.53;;;;;;;4.61;93.48;97211.72;4951852;28;20194;-89
2022/01/08 02:59:47;;;;;;;18.07;10.73;;;;;;;4.64;93.08;97221.91;4953326;28;20190;-88
2022/01/08 03:02:14;;;;;;;17.17;10.83;;;;;;;4.71;93.21;97227.78;4934971;28;20207;-85
2022/01/08 03:04:42;;;;;;;18.23;10.23;;;;;;;4.48;94.12;97194.03;4935766;28;20278;-84
2022/01/08 03:07:10;;;;;;;15.80;10.10;;;;;;;4.67;93.57;97227.00;4936925;28;20285;-86
2022/01/08 03:09:40;;;;;;;16.63;10.53;;;;;;;4.62;93.10;97207.44;4950446;28;20194;-85
2022/01/08 03:12:10;;;;;;;14.33;9.70;;;;;;;4.70;93.69;97221.78;4952676;28;20194;-85
2022/01/08 03:14:38;;;;;;;18.23;10.33;;;;;;;4.63;92.86;97189.47;4934404;28;20296;-85
2022/01/08 03:17:05;;;;;;;14.87;9.00;;;;;;;4.77;92.79;97213.09;4969242;28;20664;-87
2022/01/08 03:19:34;;;;;;;12.77;8.57;;;;;;;4.13;92.71;97130.63;4951114;28;20225;-86
2022/01/08 03:22:04;;;;;;;13.87;8.03;;;;;;;4.53;93.64;97198.22;4951109;28;20223;-85
2022/01/08 03:24:31;;;;;;;12.97;8.60;;;;;;;4.67;93.13;97213.31;4951794;28;20712;-85
2022/01/08 03:26:58;;;;;;;13.40;7.60;;;;;;;4.38;93.82;97164.31;4934219;28;20753;-85
2022/01/08 03:29:27;;;;;;;11.63;7.33;;;;;;;4.61;92.93;97198.06;4951634;28;20696;-85
2022/01/08 03:31:54;;;;;;;11.73;7.70;;;;;;;4.73;92.60;97211.47;4944342;28;20285;-85
2022/01/08 03:34:22;;;;;;;10.37;7.10;;;;;;;4.50;93.24;97177.75;4960564;28;20198;-85
2022/01/08 03:36:49;;;;;;;12.80;7.80;;;;;;;4.68;93.17;97217.56;4965787;28;20186;-87
2022/01/08 03:39:18;;;;;;;13.60;8.13;;;;;;;4.05;93.38;97106.88;4935284;28;20205;-85
2022/01/08 03:41:45;;;;;;;14.67;9.30;;;;;;;4.19;92.97;97116.84;4969038;28;20204;-85
2022/01/08 03:44:15;;;;;;;11.73;7.50;;;;;;;4.34;92.77;97160.13;4950332;28;20229;-86
2022/01/08 03:46:43;;;;;;;11.57;8.30;;;;;;;3.86;92.97;97092.72;4951390;28;20197;-85
2022/01/08 03:49:13;;;;;;;12.50;7.97;;;;;;;4.12;93.21;97149.47;4951156;28;20657;-84
2022/01/08 03:51:40;;;;;;;10.23;7.10;;;;;;;4.10;93.50;97149.47;4954285;28;20201;-84
2022/01/08 03:54:08;;;;;;;11.60;7.00;;;;;;;4.51;93.94;97207.66;4935970;28;20203;-85
2022/01/08 03:56:35;;;;;;;11.20;7.37;;;;;;;4.58;93.94;97209.22;4969330;28;20189;-84
2022/01/08 03:59:02;;;;;;;10.27;6.70;;;;;;;4.56;93.62;97193.00;4952101;28;20206;-85
2022/01/08 04:01:29;;;;;;;10.60;7.30;;;;;;;4.31;93.97;97155.91;4950124;28;20197;-85
2022/01/08 04:03:57;;;;;;;8.77;6.53;;;;;;;3.63;93.88;97047.06;4951549;28;20750;-85
2022/01/08 04:06:25;;;;;;;17.23;10.47;;;;;;;4.33;92.86;97179.78;4949808;28;20194;-85
2022/01/08 04:08:57;;;;;;;15.73;9.30;;;;;;;4.20;94.61;97165.53;4969415;28;20666;-84
2022/01/08 04:11:28;;;;;;;17.17;10.63;;;;;;;4.13;94.79;97151.13;4968055;28;20189;-84
2022/01/08 04:13:56;;;;;;;17.13;9.50;;;;;;;4.17;94.43;97147.66;4952280;28;20201;-85
2022/01/08 04:16:30;;;;;;;15.97;8.97;;;;;;;4.38;94.50;97197.66;4972567;28;20249;-85
2022/01/08 04:18:58;;;;;;;12.37;7.93;;;;;;;4.14;94.85;97170.78;4937538;28;20197;-85
2022/01/08 04:23:54;;;;;;;16.27;8.83;;;;;;;4.27;94.90;97171.38;4953713;28;20194;-84
2022/01/08 04:26:22;;;;;;;13.67;9.00;;;;;;;4.33;94.68;97190.03;4939249;28;20223;-84
2022/01/08 04:28:52;;;;;;;17.07;10.43;;;;;;;4.23;95.92;97209.03;4938327;28;20198;-89
2022/01/08 04:31:22;;;;;;;16.00;10.33;;;;;;;3.96;95.70;97153.16;4971715;28;20672;-84
2022/01/08 04:33:51;;;;;;;15.77;8.87;;;;;;;4.15;96.54;97190.41;4955542;28;20718;-85
2022/01/08 04:36:18;;;;;;;13.77;8.03;;;;;;;4.30;96.33;97204.66;4937504;28;20212;-85
2022/01/08 04:38:45;;;;;;;11.77;7.43;;;;;;;3.74;96.10;97103.19;4955022;28;20200;-84
2022/01/08 04:41:14;;;;;;;11.03;7.30;;;;;;;4.36;96.36;97205.38;4937671;28;20199;-85
2022/01/08 04:43:43;;;;;;;11.17;8.00;;;;;;;4.40;95.76;97196.75;4954953;28;20196;-86
2022/01/08 04:46:11;;;;;;;9.77;7.27;;;;;;;4.41;96.24;97203.56;4938947;28;20817;-86
2022/01/08 04:48:39;;;;;;;11.40;7.80;;;;;;;4.48;96.25;97204.28;4953551;28;20264;-86
2022/01/08 04:51:06;;;;;;;12.90;7.40;;;;;;;4.21;96.09;97139.03;4971998;28;20198;-86
2022/01/08 04:53:34;;;;;;;13.27;8.77;;;;;;;4.01;95.05;97095.00;4970488;28;20194;-85
2022/01/08 04:56:01;;;;;;;12.53;8.40;;;;;;;4.35;95.34;97154.97;4954967;28;20204;-86
2022/01/08 04:58:28;;;;;;;13.13;8.13;;;;;;;4.54;94.57;97183.66;4937266;28;20296;-86
2022/01/08 05:00:56;;;;;;;12.30;8.17;;;;;;;4.68;94.98;97192.75;4954768;28;20297;-85
2022/01/08 05:03:23;;;;;;;12.87;8.70;;;;;;;4.53;95.20;97171.72;4954321;28;20210;-85
2022/01/08 05:05:51;;;;;;;12.30;7.70;;;;;;;4.77;94.86;97192.59;4937673;28;20230;-86
2022/01/08 05:08:18;;;;;;;12.00;7.60;;;;;;;3.93;94.28;97067.00;4954654;28;20205;-85
2022/01/08 05:10:45;;;;;;;13.53;8.03;;;;;;;4.67;95.30;97195.38;4953616;28;20198;-85
2022/01/08 05:13:13;;;;;;;14.27;8.63;;;;;;;4.56;94.93;97172.50;4938982;28;20734;-86
2022/01/08 05:15:44;;;;;;;12.50;7.83;;;;;;;4.54;95.42;97170.84;4953730;28;20198;-86
2022/01/08 05:18:43;;;;;;;10.37;7.27;;;;;;;4.75;95.54;97196.91;4955428;28;20268;-85
2022/01/08 05:21:29;;;;;;;12.90;8.20;;;;;;;4.25;95.01;97127.84;4938742;28;20200;-85
2022/01/08 05:23:57;;;;;;;13.70;8.27;;;;;;;4.51;94.79;97169.19;4953762;28;20193;-85
2022/01/08 05:26:26;;;;;;;14.63;9.37;;;;;;;4.04;96.15;97093.22;4970535;28;20684;-86
2022/01/08 05:28:55;;;;;;;17.53;11.37;;;;;;;4.09;96.29;97113.63;4936420;28;20198;-86
2022/01/08 05:31:23;;;;;;;24.10;16.07;;;;;;;4.47;95.82;97167.53;4922178;28;20784;-85
2022/01/08 05:33:51;;;;;;;23.40;12.60;;;;;;;4.61;96.15;97180.97;4971116;28;20692;-85
2022/01/08 05:36:19;;;;;;;17.37;9.93;;;;;;;4.45;96.45;97194.94;4936703;28;20672;-85
2022/01/08 05:38:47;;;;;;;11.43;7.23;;;;;;;4.39;96.40;97184.81;4954260;28;20591;-87
2022/01/08 05:41:14;;;;;;;12.10;8.23;;;;;;;4.45;96.59;97197.50;4952263;28;20227;-87
2022/01/08 05:43:42;;;;;;;8.70;6.40;;;;;;;3.98;96.57;97107.88;4937948;28;20207;-86
2022/01/08 05:46:13;;;;;;;13.50;7.93;;;;;;;4.29;97.23;97177.31;4937403;28;20230;-87
2022/01/08 05:48:41;;;;;;;11.07;7.83;;;;;;;4.41;96.67;97193.31;4938143;28;20840;-86
2022/01/08 05:51:10;;;;;;;11.97;8.70;;;;;;;4.04;97.22;97134.22;4971269;28;20192;-88
2022/01/08 05:53:37;;;;;;;18.60;11.53;;;;;;;4.09;96.57;97126.44;4952625;28;20189;-85
2022/01/08 05:56:05;;;;;;;16.37;10.17;;;;;;;4.07;96.88;97143.56;4971055;28;20213;-86
2022/01/08 05:58:32;;;;;;;15.00;9.37;;;;;;;4.32;96.83;97175.56;4969044;28;20205;-86
2022/01/08 06:01:00;;;;;;;14.70;9.73;;;;;;;4.50;97.16;97197.41;4937205;28;20195;-87
2022/01/08 06:03:28;;;;;;;15.37;9.63;;;;;;;4.09;97.27;97129.00;4969500;28;20207;-88
2022/01/08 06:05:55;;;;;;;14.90;9.90;;;;;;;4.30;97.02;97182.44;4953204;28;20259;-87
2022/01/08 06:08:26;;;;;;;18.87;11.03;;;;;;;4.32;97.84;97161.88;4953755;28;20727;-89
2022/01/08 06:10:55;;;;;;;14.87;9.50;;;;;;;4.60;97.33;97198.91;4952458;28;21174;-87
2022/01/08 06:13:22;;;;;;;16.23;10.20;;;;;;;4.64;98.01;97195.41;4970786;28;20304;-88
2022/01/08 06:16:02;;;;;;;12.83;8.33;;;;;;;4.75;96.71;97208.88;4921678;28;20210;-86
2022/01/08 06:18:37;;;;;;;14.47;9.20;;;;;;;4.82;97.26;97200.19;4954925;28;20193;-86
2022/01/08 06:21:05;;;;;;;13.27;8.53;;;;;;;4.81;96.20;97198.50;4952676;28;20264;-86
2022/01/08 06:23:33;;;;;;;13.97;8.80;;;;;;;4.84;95.76;97198.44;4969973;28;20651;-86
2022/01/08 06:26:00;;;;;;;12.13;8.90;;;;;;;4.72;95.42;97173.88;4953096;28;20752;-88
2022/01/08 06:28:28;;;;;;;13.63;9.17;;;;;;;4.89;95.42;97206.88;4920056;28;20668;-88
2022/01/08 06:30:55;;;;;;;16.67;11.23;;;;;;;4.49;95.58;97150.41;4952950;28;20193;-86
2022/01/08 06:33:23;;;;;;;12.93;8.30;;;;;;;4.56;96.29;97175.06;4935759;28;20216;-89
2022/01/08 06:35:55;;;;;;;12.60;8.40;;;;;;;4.33;97.02;97166.97;4953204;28;20870;-86
2022/01/08 06:38:22;;;;;;;11.97;7.50;;;;;;;4.57;96.80;97209.25;4952032;28;20205;-86
2022/01/08 06:40:49;;;;;;;10.73;7.00;;;;;;;4.50;96.79;97203.41;4953197;28;20582;-82
2022/01/08 06:43:16;;;;;;;10.43;6.20;;;;;;;4.46;97.58;97196.63;4972303;28;20212;-82
2022/01/08 06:45:44;;;;;;;8.60;7.30;;;;;;;4.41;97.33;97195.03;4972253;28;20226;-81
2022/01/08 06:48:11;;;;;;;10.77;7.70;;;;;;;3.75;98.35;97063.94;4972601;28;20225;-83
2022/01/08 06:50:38;;;;;;;9.70;6.97;;;;;;;4.60;97.60;97196.34;4971633;28;20232;-81
2022/01/08 06:53:05;;;;;;;12.63;8.77;;;;;;;4.34;97.94;97148.16;4971859;28;20251;-81
2022/01/08 06:55:32;;;;;;;6.00;4.57;;;;;;;4.33;97.71;97159.28;4969452;28;20195;-81
2022/01/08 06:57:59;;;;;;;8.17;6.03;;;;;;;4.46;97.83;97182.97;4970866;28;20192;-81
2022/01/08 07:00:26;;;;;;;5.23;3.90;;;;;;;4.42;97.72;97173.66;4970982;28;20189;-82
2022/01/08 07:02:59;;;;;;;7.73;5.60;;;;;;;3.88;97.64;97099.53;4954595;28;20258;-82
2022/01/08 07:05:27;;;;;;;22.50;11.33;;;;;;;4.02;97.57;97128.28;4975178;28;20225;-82
2022/01/08 07:07:55;;;;;;;13.17;7.97;;;;;;;3.40;97.68;97003.13;4940598;28;20199;-83
2022/01/08 07:10:23;;;;;;;16.97;10.27;;;;;;;4.40;97.92;97166.00;4957044;28;20218;-82
2022/01/08 07:12:50;;;;;;;11.13;8.23;;;;;;;4.51;98.06;97178.59;4975282;28;20216;-83
2022/01/08 07:15:21;;;;;;;9.73;6.77;;;;;;;4.29;97.96;97141.44;4973857;28;20688;-81
2022/01/08 07:17:48;;;;;;;10.63;7.70;;;;;;;4.38;98.15;97152.38;4956470;28;20245;-82
2022/01/08 07:20:15;;;;;;;15.53;9.80;;;;;;;4.04;97.88;97115.44;4959452;28;20293;-82
2022/01/08 07:22:42;;;;;;;12.47;8.83;;;;;;;3.95;98.51;97111.34;4957195;28;20193;-82
2022/01/08 07:25:10;;;;;;;14.93;10.33;;;;;;;4.39;98.79;97169.41;4957310;28;20689;-82
2022/01/08 07:27:38;;;;;;;12.83;8.27;;;;;;;4.48;98.79;97163.25;4960216;28;20224;-82
2022/01/08 07:30:09;;;;;;;10.40;7.20;;;;;;;4.59;98.86;97182.72;4972396;28;20235;-81
2022/01/08 07:32:44;;;;;;;11.50;7.83;;;;;;;4.31;98.57;97127.72;4957428;28;20759;-82
2022/01/08 07:35:14;;;;;;;16.37;9.97;;;;;;;4.60;97.40;97158.75;4971677;28;20646;-81
2022/01/08 07:37:43;;;;;;;17.30;10.30;;;;;;;4.37;97.59;97108.81;4974544;28;20273;-83
2022/01/08 07:40:12;;;;;;;14.03;9.17;;;;;;;4.73;97.54;97178.13;4970396;28;20737;-82
2022/01/08 07:42:44;;;;;;;15.97;11.40;;;;;;;4.35;97.51;97085.75;4969805;28;20203;-84
2022/01/08 07:45:17;;;;;;;17.93;12.37;;;;;;;4.50;97.92;97095.69;4938958;28;20225;-83
2022/01/08 07:47:45;;;;;;;16.83;11.83;;;;;;;4.95;97.01;97176.81;4952186;28;20226;-83
2022/01/08 07:50:14;;;;;;;19.43;13.07;;;;;;;4.76;97.61;97129.31;4952322;28;20192;-85
2022/01/08 07:52:43;;;;;;;16.37;10.97;;;;;;;4.97;96.96;97174.19;4950740;28;20191;-86
2022/01/08 07:55:11;;;;;;;11.93;8.27;;;;;;;4.01;97.32;97048.91;4952079;28;20197;-84
2022/01/08 07:57:39;;;;;;;15.00;9.13;;;;;;;3.75;97.49;96982.81;4968270;28;20250;-86
2022/01/08 08:00:18;;;;;;;17.37;9.63;;;;;;;4.28;97.57;97078.25;4936946;28;20571;-84
2022/01/08 08:02:47;;;;;;;16.27;10.53;;;;;;;4.82;98.96;97159.97;4951796;28;20560;-84
2022/01/08 08:05:14;;;;;;;17.63;11.80;;;;;;;4.39;98.65;97066.06;4949947;28;20275;-84
2022/01/08 08:07:42;;;;;;;23.37;14.30;;;;;;;4.42;97.76;97078.78;4951868;28;20196;-85
2022/01/08 08:10:17;;;;;;;19.80;13.17;;;;;;;4.94;98.54;97151.19;4950362;28;20588;-84
2022/01/08 08:12:46;;;;;;;18.37;11.70;;;;;;;4.80;98.19;97120.69;4936292;28;20227;-86
2022/01/08 08:15:16;;;;;;;15.47;10.40;;;;;;;4.62;97.90;97103.13;4936238;28;20264;-85
2022/01/08 08:17:43;;;;;;;15.13;10.33;;;;;;;4.77;98.43;97118.19;4970031;28;20193;-85
2022/01/08 08:20:17;;;;;;;11.80;8.47;;;;;;;4.53;98.32;97075.13;4972773;28;20217;-85
2022/01/08 08:22:52;;;;;;;13.73;9.00;;;;;;;4.67;98.80;97088.50;4952951;28;20203;-85
2022/01/08 08:25:41;;;;;;;10.47;7.37;;;;;;;3.96;98.56;96972.13;4951806;28;20228;-88
2022/01/08 08:28:19;;;;;;;13.30;8.93;;;;;;;5.11;98.42;97136.22;4921569;28;20198;-86
2022/01/08 08:30:47;;;;;;;13.27;9.80;;;;;;;4.59;98.63;97059.63;4951560;28;20206;-87
2022/01/08 08:33:15;;;;;;;16.27;10.83;;;;;;;4.94;97.95;97107.56;4951548;28;20196;-87
2022/01/08 08:35:43;;;;;;;18.90;12.03;;;;;;;5.12;97.87;97139.66;4934472;28;20213;-87
2022/01/08 08:38:11;;;;;;;14.43;10.33;;;;;;;5.27;98.43;97136.75;4937780;28;20217;-87
2022/01/08 08:40:38;;;;;;;17.70;12.53;;;;;;;4.97;98.61;97086.94;4968944;28;20675;-87
2022/01/08 08:43:05;;;;;;;21.60;14.33;;;;;;;5.25;98.46;97107.69;4951765;28;20279;-86
2022/01/08 08:45:33;;;;;;;24.73;15.70;;;;;;;5.49;97.42;97119.94;4949995;28;20731;-85
2022/01/08 08:48:03;;;;;;;24.23;15.67;;;;;;;5.63;96.75;97133.25;4950726;28;20239;-87
2022/01/08 08:50:52;;;;;;;11.37;8.40;;;;;;;5.37;96.88;97102.25;4969202;28;20202;-87
2022/01/08 08:53:20;;;;;;;15.77;10.37;;;;;;;5.50;96.00;97113.94;4950621;28;20207;-87
2022/01/08 08:55:52;;;;;;;14.90;10.70;;;;;;;5.28;96.68;97058.81;4952424;28;20210;-87
2022/01/08 08:58:20;;;;;;;8.93;6.77;;;;;;;5.73;96.20;97116.75;4954001;28;20241;-87
2022/01/08 09:00:47;;;;;;;11.67;7.80;;;;;;;5.00;95.25;96999.66;4957397;28;20199;-87
2022/01/08 09:03:17;;;;;;;11.20;8.53;;;;;;;5.38;95.82;97058.56;4956054;28;20268;-87
2022/01/08 09:05:47;;;;;;;40.97;19.00;;;;;;;5.76;95.83;97107.25;4956225;28;20228;-89
2022/01/08 09:08:19;;;;;;;8.40;6.60;;;;;;;5.71;95.01;97098.81;4924678;28;20199;-88
2022/01/08 09:10:47;;;;;;;14.17;10.00;;;;;;;4.66;94.50;96926.94;4971042;28;20191;-86
2022/01/08 09:13:16;;;;;;;14.10;9.53;;;;;;;5.66;95.43;97090.38;4956042;28;20204;-88
2022/01/08 09:15:43;;;;;;;12.67;8.90;;;;;;;5.69;95.98;97089.44;4938470;28;20202;-87
2022/01/08 09:18:14;;;;;;;12.60;8.87;;;;;;;5.58;95.60;97069.19;4972101;28;20257;-88
2022/01/08 09:20:46;;;;;;;10.27;8.00;;;;;;;5.29;95.63;97001.47;4939326;28;20225;-88
2022/01/08 09:23:17;;;;;;;15.43;8.93;;;;;;;5.81;96.21;97085.72;4936685;28;20210;-89
2022/01/08 09:25:46;;;;;;;10.13;5.80;;;;;;;5.79;94.91;97066.03;4971648;28;20214;-88
2022/01/08 09:28:13;;;;;;;7.97;6.60;;;;;;;5.55;94.78;97030.72;4952918;28;20654;-89
2022/01/08 09:30:41;;;;;;;7.77;4.87;;;;;;;5.37;94.98;97002.97;4972553;28;20242;-87
2022/01/08 09:33:12;;;;;;;7.37;5.87;;;;;;;5.27;96.01;97004.09;4969877;28;20247;-86
2022/01/08 09:35:42;;;;;;;16.60;11.43;;;;;;;5.70;95.79;97050.88;4972366;28;20212;-88
2022/01/08 09:38:10;;;;;;;15.50;10.03;;;;;;;5.70;97.37;97043.19;4938132;28;20202;-87
2022/01/08 09:40:37;;;;;;;21.67;14.23;;;;;;;5.47;97.65;96991.56;4937576;28;20199;-87
2022/01/08 09:43:28;;;;;;;16.43;9.47;;;;;;;5.80;96.97;97056.63;4972185;28;20205;-88
2022/01/08 09:45:57;;;;;;;15.33;11.23;;;;;;;5.93;98.11;97049.44;4969693;28;20238;-86
2022/01/08 09:48:33;;;;;;;8.97;6.77;;;;;;;5.19;98.83;96969.22;4938423;29;20249;-88
2022/01/08 09:51:05;;;;;;;16.53;11.63;;;;;;;5.27;99.32;96954.47;4935324;28;20228;-86
2022/01/08 09:53:43;;;;;;;18.23;11.23;;;;;;;5.53;98.75;97005.97;4937271;28;20246;-87
2022/01/08 09:56:11;;;;;;;20.23;10.07;;;;;;;5.32;98.84;96940.63;4937703;28;20201;-87
2022/01/08 09:58:38;;;;;;;15.33;9.60;;;;;;;5.90;98.67;97016.97;4952635;28;20202;-87
2022/01/08 10:01:31;;;;;;;19.50;12.37;;;;;;;5.74;98.06;96990.84;4971892;28;20252;-83
2022/01/08 10:04:40;;;;;;;21.27;14.87;;;;;;;6.05;99.19;97021.69;4969364;28;20688;-85
2022/01/08 10:08:15;;;;;;;13.53;8.63;;;;;;;5.92;98.42;97020.34;4967805;28;20348;-85
2022/01/08 10:11:40;;;;;;;15.63;10.37;;;;;;;6.00;98.63;97008.09;4969364;28;20202;-84
2022/01/08 10:18:24;;;;;;;12.40;9.33;;;;;;;6.05;97.60;96998.56;4969737;28;20197;-83
2022/01/08 10:21:54;;;;;;;10.73;6.17;;;;;;;6.03;98.96;97002.91;4967435;28;20674;-84
2022/01/08 10:24:36;;;;;;;10.53;5.93;;;;;;;5.97;97.57;96972.22;4951754;28;20194;-83
2022/01/08 10:27:06;;;;;;;11.83;6.63;;;;;;;6.06;97.45;96984.78;4952695;28;20252;-83
2022/01/08 10:29:35;;;;;;;7.37;5.50;;;;;;;5.92;98.05;96957.81;4951192;28;20290;-83
2022/01/08 10:32:07;;;;;;;9.57;6.67;;;;;;;5.81;97.72;96940.13;4936394;28;20610;-85
2022/01/08 10:34:35;;;;;;;27.23;15.10;;;;;;;5.99;98.72;96970.47;4951758;28;20677;-82
2022/01/08 10:37:05;;;;;;;12.83;8.03;;;;;;;5.93;98.70;96967.22;4951964;28;20656;-85
2022/01/08 10:39:38;;;;;;;21.30;12.47;;;;;;;5.81;97.79;96934.13;4970120;28;20606;-82
2022/01/08 10:42:14;;;;;;;27.40;16.00;;;;;;;6.00;97.22;96948.13;4951454;28;20280;-83
2022/01/08 10:44:49;;;;;;;24.37;14.33;;;;;;;5.63;97.95;96894.38;4951847;28;20207;-82
2022/01/08 10:47:20;;;;;;;17.50;12.60;;;;;;;5.80;98.41;96928.16;4968135;28;20216;-82
2022/01/08 10:50:00;;;;;;;18.00;12.20;;;;;;;6.05;97.78;96954.00;4936616;28;20225;-83
2022/01/08 10:52:41;;;;;;;16.70;10.77;;;;;;;5.89;96.57;96916.78;4969823;28;20225;-83
2022/01/08 10:55:14;;;;;;;14.27;10.03;;;;;;;6.00;97.79;96945.56;4952486;28;20242;-84
2022/01/08 10:57:47;;;;;;;11.47;7.00;;;;;;;6.10;98.17;96941.88;4938056;28;20206;-86
2022/01/08 11:00:17;;;;;;;15.67;9.17;;;;;;;6.31;97.89;96941.19;4950555;28;20261;-83
2022/01/08 11:02:47;;;;;;;16.13;11.70;;;;;;;5.82;96.73;96839.00;4952075;28;20238;-84
2022/01/08 11:05:15;;;;;;;22.57;14.17;;;;;;;6.35;96.83;96928.22;4969063;28;20199;-85
2022/01/08 11:07:44;;;;;;;23.17;13.73;;;;;;;6.16;97.12;96916.78;4950933;28;20227;-82
2022/01/08 11:10:19;;;;;;;14.57;10.10;;;;;;;6.33;97.26;96935.13;4969513;28;20617;-84
2022/01/08 11:12:51;;;;;;;15.43;10.80;;;;;;;6.30;96.67;96919.81;4950583;28;20669;-86
2022/01/08 11:17:56;;;;;;;11.30;8.00;;;;;;;6.00;96.84;96853.03;4968665;28;20614;-83
2022/01/08 11:20:45;;;;;;;13.70;8.77;;;;;;;6.13;95.85;96900.63;4967974;28;20194;-83
2022/01/08 11:23:14;;;;;;;13.63;9.27;;;;;;;6.27;96.56;96922.47;4969323;28;20185;-83
2022/01/08 11:25:45;;;;;;;10.13;6.33;;;;;;;6.37;96.74;96929.00;4950524;28;20194;-83
2022/01/08 11:28:14;;;;;;;9.90;6.37;;;;;;;6.22;96.08;96890.06;4936248;28;20196;-85
2022/01/08 11:30:56;;;;;;;9.03;6.10;;;;;;;6.33;96.37;96909.41;4967710;28;20585;-85
2022/01/08 11:33:29;;;;;;;6.80;4.97;;;;;;;6.37;96.17;96910.16;4935619;28;20232;-87
2022/01/08 11:35:59;;;;;;;8.17;5.93;;;;;;;6.33;96.85;96903.41;4969088;28;20188;-85
2022/01/08 11:38:28;;;;;;;9.13;7.00;;;;;;;6.49;96.50;96909.78;4950078;28;20210;-84
2022/01/08 11:40:58;;;;;;;8.87;6.50;;;;;;;6.29;97.26;96900.13;4951738;28;20326;-84
2022/01/08 11:43:28;;;;;;;20.63;12.43;;;;;;;5.95;97.94;96866.06;4950815;28;20224;-85
2022/01/08 11:46:02;;;;;;;20.33;12.87;;;;;;;6.23;96.57;96887.44;4968351;28;20203;-84
2022/01/08 11:48:37;;;;;;;13.27;9.93;;;;;;;6.11;97.51;96892.97;4968332;28;20331;-83
2022/01/08 11:51:06;;;;;;;14.77;9.83;;;;;;;5.93;98.64;96880.69;4950537;28;20218;-86
2022/01/08 11:53:56;;;;;;;13.00;9.70;;;;;;;5.91;98.95;96868.75;4953038;28;20202;-83
2022/01/08 11:56:37;;;;;;;16.37;11.07;;;;;;;6.09;97.79;96884.47;4967603;28;20210;-84
2022/01/08 11:59:12;;;;;;;14.63;9.60;;;;;;;5.93;97.42;96857.56;4951559;28;20201;-85
2022/01/08 12:01:43;;;;;;;14.03;10.30;;;;;;;6.10;97.82;96868.13;4935628;28;20260;-85
2022/01/08 12:04:27;;;;;;;11.73;8.00;;;;;;;5.87;98.61;96806.34;4950615;28;20195;-85
2022/01/08 12:06:54;;;;;;;12.23;8.83;;;;;;;6.09;97.92;96829.66;4919679;28;20230;-85
2022/01/08 12:09:27;;;;;;;14.70;8.73;;;;;;;5.95;98.50;96835.22;4934314;28;20213;-83
2022/01/08 12:11:58;;;;;;;11.13;8.50;;;;;;;5.32;97.41;96706.16;4951778;28;20195;-84